Time;durP1;ratioP1;P1;durP2;ratioP2;P2;SDS_P1;SDS_P2;PMS_P1;PMS_P2;Temp;Humidity;BMP_temperature;BMP_pressure;BME280_temperature;BME280_humidity;BME280_pressure;Samples;Min_cycle;Max_cycle;Signal;HPM_P1;HPM_P2
2023/01/31 00:01:13;;;;;;;3.10;0.97;;;;;;;3.16;100.00;100706.44;4994229;28;20186;-84
2023/01/31 00:03:39;;;;;;;7.33;2.63;;;;;;;3.16;100.00;100703.75;4994215;28;20181;-83
2023/01/31 00:06:29;;;;;;;3.93;2.40;;;;;;;3.11;100.00;100696.44;4994096;28;20754;-85
2023/01/31 00:08:56;;;;;;;11.80;2.13;;;;;;;3.07;100.00;100714.22;4994123;28;20803;-85
2023/01/31 00:11:24;;;;;;;11.17;2.57;;;;;;;3.04;100.00;100716.59;4993976;28;20176;-81
2023/01/31 00:13:50;;;;;;;15.90;3.57;;;;;;;3.01;100.00;100709.81;4994057;28;20169;-82
2023/01/31 00:16:17;;;;;;;24.87;3.70;;;;;;;3.10;100.00;100718.28;4993934;28;20343;-83
2023/01/31 00:18:43;;;;;;;8.10;1.70;;;;;;;3.10;100.00;100731.78;4993949;28;20535;-83
2023/01/31 00:21:19;;;;;;;17.33;2.37;;;;;;;3.12;100.00;100725.03;4993597;28;20173;-85
2023/01/31 00:23:46;;;;;;;4.33;1.63;;;;;;;3.18;100.00;100734.00;4993817;28;20518;-82
2023/01/31 00:26:23;;;;;;;30.17;3.07;;;;;;;3.18;100.00;100726.75;4993901;28;20213;-84
2023/01/31 00:28:50;;;;;;;19.63;1.87;;;;;;;3.19;100.00;100720.28;4993870;28;20177;-83
2023/01/31 00:31:17;;;;;;;12.33;2.90;;;;;;;3.25;100.00;100727.34;4993593;28;20188;-82
2023/01/31 00:33:43;;;;;;;7.10;1.73;;;;;;;3.29;100.00;100750.03;4993692;28;20173;-81
2023/01/31 00:36:12;;;;;;;5.87;0.60;;;;;;;3.30;100.00;100745.47;4993727;28;20192;-80
2023/01/31 00:38:38;;;;;;;7.23;1.87;;;;;;;3.33;100.00;100739.56;4993676;28;20189;-82
2023/01/31 00:41:04;;;;;;;9.07;1.43;;;;;;;3.37;100.00;100746.09;4993442;28;20182;-80
2023/01/31 00:43:31;;;;;;;1.23;0.83;;;;;;;3.36;100.00;100747.16;4993631;28;20185;-84
2023/01/31 00:45:56;;;;;;;24.20;2.87;;;;;;;3.42;100.00;100748.81;4993103;28;20220;-85
2023/01/31 00:48:21;;;;;;;8.90;2.87;;;;;;;3.52;100.00;100740.81;4993561;28;20185;-84
2023/01/31 00:50:47;;;;;;;1.67;1.20;;;;;;;3.51;100.00;100754.56;4993213;28;20181;-84
2023/01/31 00:53:12;;;;;;;0.00;0.00;;;;;;;3.52;100.00;100750.81;4993525;28;20260;-85
2023/01/31 00:55:37;;;;;;;1.50;0.67;;;;;;;3.42;100.00;100746.13;4993328;28;20235;-83
2023/01/31 00:58:03;;;;;;;5.83;0.87;;;;;;;3.36;100.00;100757.16;4993235;28;20223;-79
2023/01/31 01:00:28;;;;;;;0.77;0.53;;;;;;;3.31;100.00;100763.28;4992545;28;20264;-84
2023/01/31 01:02:54;;;;;;;14.73;3.80;;;;;;;3.32;100.00;100764.91;4993220;28;20197;-85
2023/01/31 01:05:19;;;;;;;3.23;1.53;;;;;;;3.31;100.00;100766.00;4993319;28;20247;-86
2023/01/31 01:07:44;;;;;;;5.13;1.17;;;;;;;3.33;100.00;100760.34;4993043;28;20258;-84
2023/01/31 01:10:10;;;;;;;5.83;2.20;;;;;;;3.33;100.00;100760.34;4993051;28;20588;-84
2023/01/31 01:12:36;;;;;;;5.93;1.33;;;;;;;3.34;100.00;100765.50;4992949;28;20224;-86
2023/01/31 01:15:01;;;;;;;1.57;1.03;;;;;;;3.34;100.00;100770.91;4993039;28;20531;-84
2023/01/31 01:17:26;;;;;;;4.47;1.47;;;;;;;3.33;100.00;100761.19;4992891;28;20581;-80
2023/01/31 01:19:52;;;;;;;2.77;1.13;;;;;;;3.30;100.00;100764.34;4993204;28;20701;-85
2023/01/31 01:22:17;;;;;;;3.90;0.83;;;;;;;3.28;100.00;100766.50;4992645;28;20268;-86
2023/01/31 01:24:43;;;;;;;9.10;1.37;;;;;;;3.28;100.00;100770.03;4992804;28;20695;-85
2023/01/31 01:27:09;;;;;;;8.63;1.77;;;;;;;3.27;100.00;100781.88;4992730;28;20232;-83
2023/01/31 01:29:35;;;;;;;4.37;2.60;;;;;;;3.28;100.00;100782.72;4992783;28;20181;-86
2023/01/31 01:32:01;;;;;;;8.50;1.30;;;;;;;3.29;100.00;100789.72;4992706;28;20511;-82
2023/01/31 01:34:27;;;;;;;6.43;2.97;;;;;;;3.29;100.00;100792.44;4992721;28;20177;-85
2023/01/31 01:36:52;;;;;;;6.30;2.83;;;;;;;3.29;100.00;100795.13;4992445;28;20190;-84
2023/01/31 01:39:17;;;;;;;0.67;0.67;;;;;;;3.28;100.00;100793.50;4992606;28;20177;-84
2023/01/31 01:41:43;;;;;;;18.50;1.97;;;;;;;3.29;100.00;100789.72;4992332;28;20591;-83
2023/01/31 01:44:45;;;;;;;23.87;2.27;;;;;;;3.32;100.00;100794.63;4992705;28;20661;-87
2023/01/31 01:47:22;;;;;;;2.90;1.20;;;;;;;3.31;100.00;100803.78;4992295;28;20185;-86
2023/01/31 01:49:57;;;;;;;5.00;0.93;;;;;;;3.27;100.00;100803.50;4992461;28;20228;-87
2023/01/31 01:52:25;;;;;;;2.90;1.20;;;;;;;3.27;100.00;100803.50;4992273;28;20185;-87
2023/01/31 01:55:02;;;;;;;10.77;1.70;;;;;;;3.31;100.00;100811.88;4992960;28;20181;-86
2023/01/31 01:57:39;;;;;;;9.63;2.10;;;;;;;3.36;100.00;100803.88;4993614;28;20176;-84
2023/01/31 02:00:04;;;;;;;3.47;2.43;;;;;;;3.36;100.00;100801.16;4995339;28;20177;-81
2023/01/31 02:02:29;;;;;;;24.43;2.03;;;;;;;3.40;100.00;100804.97;4993350;28;20184;-83
2023/01/31 02:04:55;;;;;;;6.93;1.47;;;;;;;3.42;100.00;100804.72;4992258;28;20228;-84
2023/01/31 02:07:20;;;;;;;19.37;2.83;;;;;;;3.44;100.00;100816.88;4992053;28;20181;-85
2023/01/31 02:09:51;;;;;;;20.17;1.67;;;;;;;3.46;100.00;100805.84;4992066;28;20680;-84
2023/01/31 02:12:17;;;;;;;11.37;2.83;;;;;;;3.46;100.00;100811.22;4991871;28;20213;-81
2023/01/31 02:14:45;;;;;;;14.53;2.43;;;;;;;3.47;100.00;100816.41;4991792;28;20212;-82
2023/01/31 02:17:16;;;;;;;9.63;1.37;;;;;;;3.47;100.00;100820.97;4992234;28;20178;-80
2023/01/31 02:20:26;;;;;;;3.53;1.50;;;;;;;3.44;100.00;100819.59;4991756;28;20660;-83
2023/01/31 02:23:16;;;;;;;7.50;1.57;;;;;;;3.42;100.00;100826.31;4950350;28;20209;-81
2023/01/31 02:26:02;;;;;;;7.37;0.80;;;;;;;3.46;100.00;100836.34;4991610;28;20551;-86
2023/01/31 02:28:27;;;;;;;3.90;0.80;;;;;;;3.45;100.00;100837.44;4991811;28;20196;-81
2023/01/31 02:31:20;;;;;;;2.53;1.27;;;;;;;3.43;100.00;100831.47;4990476;28;20637;-75
2023/01/31 02:33:57;;;;;;;7.70;2.50;;;;;;;3.42;100.00;100819.03;4991728;28;20203;-85
2023/01/31 02:36:52;;;;;;;9.70;1.60;;;;;;;3.44;100.00;100824.19;4991895;28;20213;-81
2023/01/31 02:39:29;;;;;;;3.70;1.33;;;;;;;3.37;100.00;100819.00;4991566;28;20166;-84
2023/01/31 02:42:22;;;;;;;2.10;1.07;;;;;;;3.32;100.00;100827.03;4991311;28;20231;-85
2023/01/31 02:44:58;;;;;;;9.30;1.67;;;;;;;3.31;100.00;100828.09;4991510;28;20228;-77
2023/01/31 02:47:32;;;;;;;8.43;1.03;;;;;;;3.34;100.00;100838.41;4991312;28;20169;-83
2023/01/31 02:50:10;;;;;;;2.40;1.47;;;;;;;3.32;100.00;100845.94;4990525;28;20216;-82
2023/01/31 02:53:26;;;;;;;2.77;0.70;;;;;;;3.22;100.00;100840.44;4991677;28;20180;-84
2023/01/31 02:56:18;;;;;;;0.57;0.57;;;;;;;3.07;100.00;100837.56;4949994;28;20269;-81
2023/01/31 02:59:04;;;;;;;10.73;2.03;;;;;;;2.98;100.00;100837.97;4950401;29;20263;-84
2023/01/31 03:01:33;;;;;;;14.80;1.57;;;;;;;2.93;100.00;100829.84;4982058;28;20671;-85
2023/01/31 03:04:03;;;;;;;8.87;1.37;;;;;;;2.93;100.00;100832.53;4991638;28;20692;-82
2023/01/31 03:06:34;;;;;;;2.40;1.77;;;;;;;2.93;100.00;100821.75;4991396;28;20217;-79
2023/01/31 03:09:20;;;;;;;5.93;1.30;;;;;;;2.99;100.00;100815.31;4991742;28;20184;-83
2023/01/31 03:11:57;;;;;;;4.63;1.37;;;;;;;3.05;100.00;100828.91;4991197;28;20177;-86
2023/01/31 03:14:29;;;;;;;6.17;2.00;;;;;;;3.09;100.00;100817.34;4991372;28;20206;-85
2023/01/31 03:17:30;;;;;;;7.53;1.20;;;;;;;3.13;100.00;100820.34;4991120;28;20799;-80
2023/01/31 03:20:15;;;;;;;6.23;1.80;;;;;;;3.15;100.00;100823.59;4991131;28;20592;-78
2023/01/31 03:22:48;;;;;;;3.57;1.73;;;;;;;3.16;100.00;100814.44;4991010;28;20181;-84
2023/01/31 03:25:17;;;;;;;4.47;1.47;;;;;;;3.18;100.00;100817.69;4994140;28;20803;-86
2023/01/31 03:27:47;;;;;;;6.13;2.60;;;;;;;3.21;100.00;100815.31;4994951;28;20188;-81
2023/01/31 03:30:17;;;;;;;16.00;3.20;;;;;;;3.25;100.00;100808.34;4994799;28;20181;-79
2023/01/31 03:32:54;;;;;;;5.40;1.47;;;;;;;3.29;100.00;100811.34;4994810;28;20169;-83
2023/01/31 03:35:24;;;;;;;6.43;1.33;;;;;;;3.31;100.00;100809.19;4994848;28;20188;-81
2023/01/31 03:37:58;;;;;;;21.73;3.30;;;;;;;3.33;100.00;100815.19;4994707;28;20182;-85
2023/01/31 03:40:33;;;;;;;9.87;1.23;;;;;;;3.33;100.00;100803.53;4994548;28;20169;-80
2023/01/31 03:42:58;;;;;;;4.53;2.07;;;;;;;3.33;100.00;100806.22;4994626;28;20177;-83
2023/01/31 03:45:47;;;;;;;20.53;2.97;;;;;;;3.36;100.00;100806.56;4994190;28;20208;-72
2023/01/31 03:48:16;;;;;;;6.53;1.10;;;;;;;3.35;100.00;100794.13;4996271;28;20165;-73
2023/01/31 03:50:59;;;;;;;19.50;2.60;;;;;;;3.38;100.00;100788.22;4994421;28;20204;-71
2023/01/31 03:53:51;;;;;;;9.30;2.30;;;;;;;3.39;100.00;100797.13;4994391;28;20177;-74
2023/01/31 03:56:27;;;;;;;19.67;2.67;;;;;;;3.40;100.00;100796.06;4994320;28;20565;-71
2023/01/31 03:58:58;;;;;;;3.13;1.70;;;;;;;3.39;100.00;100794.44;4994353;28;20177;-71
2023/01/31 04:01:26;;;;;;;16.53;2.03;;;;;;;3.38;100.00;100803.59;4994198;28;20170;-72
2023/01/31 04:04:01;;;;;;;3.67;1.47;;;;;;;3.33;100.00;100800.84;4994216;28;20264;-72
2023/01/31 04:06:27;;;;;;;5.60;1.67;;;;;;;3.25;100.00;100794.03;4993948;28;20208;-71
2023/01/31 04:08:52;;;;;;;4.20;1.67;;;;;;;3.20;100.00;100802.06;4994112;28;20196;-72
2023/01/31 04:11:23;;;;;;;10.83;2.23;;;;;;;3.16;100.00;100795.53;4994054;28;20576;-71
2023/01/31 04:13:48;;;;;;;11.50;2.57;;;;;;;3.12;100.00;100799.81;4994378;28;20173;-71
2023/01/31 04:16:13;;;;;;;9.73;2.53;;;;;;;3.08;100.00;100804.91;4993983;28;20176;-71
2023/01/31 04:18:39;;;;;;;12.77;2.50;;;;;;;3.02;100.00;100800.50;4993890;28;20187;-71
2023/01/31 04:21:04;;;;;;;8.40;2.07;;;;;;;2.97;100.00;100787.78;4993781;28;20188;-71
2023/01/31 04:23:30;;;;;;;16.47;2.73;;;;;;;2.92;100.00;100801.22;4993269;28;20184;-71
2023/01/31 04:25:55;;;;;;;19.13;3.80;;;;;;;2.90;100.00;100797.16;4993947;28;20208;-71
2023/01/31 04:28:21;;;;;;;9.20;1.60;;;;;;;2.89;100.00;100793.63;4993772;28;20486;-72
2023/01/31 04:30:51;;;;;;;17.33;3.17;;;;;;;2.87;100.00;100790.34;4993584;28;20169;-71
2023/01/31 04:33:17;;;;;;;28.70;3.70;;;;;;;2.88;100.00;100799.25;4993616;28;20201;-71
2023/01/31 04:35:42;;;;;;;7.10;3.27;;;;;;;2.89;100.00;100801.72;4992470;28;20356;-74
2023/01/31 04:38:07;;;;;;;9.80;2.40;;;;;;;2.89;100.00;100798.19;4993630;28;20483;-71
2023/01/31 04:40:32;;;;;;;14.87;2.83;;;;;;;2.90;100.00;100803.34;4993371;28;20173;-71
2023/01/31 04:42:58;;;;;;;30.83;3.07;;;;;;;2.90;100.00;100814.16;4993741;28;20186;-71
2023/01/31 04:45:23;;;;;;;20.03;2.97;;;;;;;2.90;100.00;100786.34;4993337;28;20213;-72
2023/01/31 04:47:48;;;;;;;6.47;2.60;;;;;;;2.88;100.00;100794.69;4993095;28;20205;-71
2023/01/31 04:50:14;;;;;;;7.77;2.20;;;;;;;2.90;100.00;100803.34;4993211;28;20173;-71
2023/01/31 04:52:39;;;;;;;8.20;1.87;;;;;;;3.01;100.00;100808.84;4993324;28;20177;-71
2023/01/31 04:55:05;;;;;;;6.27;1.73;;;;;;;3.02;100.00;100800.50;4993194;28;20259;-74
2023/01/31 04:57:30;;;;;;;3.83;2.10;;;;;;;3.00;100.00;100802.66;4993246;28;20185;-71
2023/01/31 04:59:56;;;;;;;7.57;2.57;;;;;;;2.94;100.00;100807.19;4992945;28;20177;-74
2023/01/31 05:02:22;;;;;;;11.67;2.20;;;;;;;2.93;100.00;100813.66;4993038;28;20197;-72
2023/01/31 05:04:47;;;;;;;7.07;1.93;;;;;;;2.89;100.00;100811.69;4993188;28;20173;-71
2023/01/31 05:07:12;;;;;;;2.17;1.97;;;;;;;2.82;100.00;100811.06;4993312;28;20184;-73
2023/01/31 05:09:38;;;;;;;11.03;2.63;;;;;;;2.85;100.00;100815.94;4993068;28;20719;-71
2023/01/31 05:12:03;;;;;;;13.53;2.23;;;;;;;2.87;100.00;100824.59;4992810;28;20564;-71
2023/01/31 05:14:29;;;;;;;18.90;3.20;;;;;;;2.83;100.00;100816.22;4992898;28;20173;-75
2023/01/31 05:16:54;;;;;;;7.30;1.90;;;;;;;2.80;100.00;100821.31;4992764;28;20677;-71
2023/01/31 05:19:19;;;;;;;14.40;2.03;;;;;;;2.84;100.00;100817.84;4992833;28;20173;-71
2023/01/31 05:21:53;;;;;;;13.53;2.90;;;;;;;2.87;100.00;100820.03;4992463;28;20215;-73
2023/01/31 05:24:22;;;;;;;5.37;1.73;;;;;;;2.90;100.00;100818.75;4992761;28;20173;-71
2023/01/31 05:26:50;;;;;;;8.03;1.83;;;;;;;2.88;100.00;100815.44;4992431;28;20240;-71
2023/01/31 05:29:16;;;;;;;2.00;1.63;;;;;;;2.89;100.00;100811.69;4992526;28;20174;-71
2023/01/31 05:31:41;;;;;;;6.93;1.83;;;;;;;2.88;100.00;100816.25;4992451;28;20189;-71
2023/01/31 05:34:07;;;;;;;11.77;2.40;;;;;;;2.88;100.00;100815.44;4992512;28;20179;-71
2023/01/31 05:36:33;;;;;;;14.17;1.13;;;;;;;2.86;100.00;100818.41;4992456;28;20170;-71
2023/01/31 05:38:58;;;;;;;11.00;2.13;;;;;;;2.85;100.00;100807.84;4992402;28;20760;-72
2023/01/31 05:41:23;;;;;;;14.77;1.97;;;;;;;2.81;100.00;100807.56;4992266;28;20173;-72
2023/01/31 05:43:48;;;;;;;3.83;1.03;;;;;;;2.82;100.00;100808.38;4992357;28;20603;-72
2023/01/31 05:46:14;;;;;;;5.10;1.97;;;;;;;2.80;100.00;100803.22;4991614;28;20212;-71
2023/01/31 05:48:39;;;;;;;4.30;1.53;;;;;;;2.81;100.00;100804.03;4992358;28;20659;-71
2023/01/31 05:51:05;;;;;;;3.60;2.10;;;;;;;2.80;100.00;100803.22;4992356;28;20617;-71
2023/01/31 05:53:30;;;;;;;1.67;1.10;;;;;;;2.80;100.00;100797.84;4992251;28;20169;-70
2023/01/31 05:55:55;;;;;;;3.83;1.30;;;;;;;2.83;100.00;100800.03;4992074;28;20177;-71
2023/01/31 05:58:20;;;;;;;1.37;1.27;;;;;;;2.86;100.00;100799.50;4992192;28;20169;-72
2023/01/31 06:00:46;;;;;;;11.87;2.83;;;;;;;2.89;100.00;100799.03;4992046;28;20264;-72
2023/01/31 06:03:11;;;;;;;7.27;1.40;;;;;;;2.90;100.00;100797.97;4992035;28;20633;-72
2023/01/31 06:05:39;;;;;;;7.57;1.90;;;;;;;2.89;100.00;100788.25;4991915;28;20201;-72
2023/01/31 06:08:04;;;;;;;7.90;1.47;;;;;;;2.91;100.00;100793.38;4992001;28;20169;-71
2023/01/31 06:10:29;;;;;;;10.90;3.83;;;;;;;2.91;100.00;100782.59;4991760;28;20183;-75
2023/01/31 06:12:55;;;;;;;12.67;2.27;;;;;;;2.96;100.00;100771.84;4990971;28;20184;-76
2023/01/31 06:15:20;;;;;;;17.80;2.80;;;;;;;2.94;100.00;100772.09;4992178;28;20208;-82
2023/01/31 06:17:45;;;;;;;7.03;1.97;;;;;;;2.94;100.00;100782.06;4991838;28;20533;-81
2023/01/31 06:20:11;;;;;;;8.03;1.87;;;;;;;2.94;100.00;100782.06;4991899;28;20232;-81
2023/01/31 06:22:36;;;;;;;8.20;1.47;;;;;;;2.93;100.00;100788.53;4991765;28;20181;-84
2023/01/31 06:25:02;;;;;;;8.47;1.80;;;;;;;2.95;100.00;100776.44;4991701;28;20197;-87
2023/01/31 06:27:31;;;;;;;3.53;2.40;;;;;;;2.94;100.00;100782.06;4990555;28;20235;-82
2023/01/31 06:29:56;;;;;;;15.57;4.97;;;;;;;2.94;100.00;100784.78;4991741;28;20177;-78
2023/01/31 06:32:21;;;;;;;2.60;1.67;;;;;;;2.98;100.00;100784.00;4991780;28;20180;-84
2023/01/31 06:34:47;;;;;;;26.93;2.10;;;;;;;3.01;100.00;100787.25;4991730;28;20180;-84
2023/01/31 06:37:12;;;;;;;5.50;2.43;;;;;;;3.01;100.00;100787.25;4991868;28;20228;-78
2023/01/31 06:39:37;;;;;;;9.67;1.93;;;;;;;3.05;100.00;100780.31;4991502;28;20228;-79
2023/01/31 06:42:03;;;;;;;2.20;1.90;;;;;;;3.06;100.00;100777.34;4991575;28;20228;-81
2023/01/31 06:44:28;;;;;;;10.90;2.43;;;;;;;3.08;100.00;100769.00;4991589;28;20212;-82
2023/01/31 06:46:54;;;;;;;1.70;1.00;;;;;;;3.11;100.00;100773.91;4991127;28;20219;-85
2023/01/31 06:49:19;;;;;;;1.63;1.07;;;;;;;3.15;100.00;100780.41;4990203;28;20364;-82
2023/01/31 06:51:44;;;;;;;6.73;2.77;;;;;;;3.16;100.00;100771.25;4991387;28;20177;-81
2023/01/31 06:54:09;;;;;;;16.67;2.57;;;;;;;3.15;100.00;100759.63;4991530;28;20185;-85
2023/01/31 06:56:35;;;;;;;18.03;3.30;;;;;;;3.19;100.00;100754.56;4991432;28;20227;-81
2023/01/31 06:59:00;;;;;;;2.43;2.23;;;;;;;3.23;100.00;100755.66;4992366;28;20538;-85
2023/01/31 07:01:25;;;;;;;13.33;3.57;;;;;;;3.28;100.00;100761.91;4995246;28;20169;-85
2023/01/31 07:03:51;;;;;;;6.60;2.63;;;;;;;3.29;100.00;100766.25;4995154;28;20525;-79
2023/01/31 07:06:19;;;;;;;8.27;3.67;;;;;;;3.31;100.00;100754.38;4995020;28;20204;-72
2023/01/31 07:08:44;;;;;;;6.90;3.27;;;;;;;3.35;100.00;100747.41;4995584;28;20267;-71
2023/01/31 07:11:10;;;;;;;9.63;2.50;;;;;;;3.39;100.00;100749.34;4994525;28;20570;-81
2023/01/31 07:13:35;;;;;;;15.87;4.53;;;;;;;3.41;100.00;100747.19;4994997;28;20652;-79
2023/01/31 07:16:00;;;;;;;7.53;3.57;;;;;;;3.46;100.00;100746.41;4995408;28;20558;-83
2023/01/31 07:18:25;;;;;;;10.53;3.17;;;;;;;3.49;100.00;100730.53;4995483;28;20177;-84
2023/01/31 07:20:51;;;;;;;7.00;3.60;;;;;;;3.51;100.00;100736.47;4995383;28;20566;-76
2023/01/31 07:23:16;;;;;;;5.17;4.40;;;;;;;3.52;100.00;100735.41;4994814;28;20227;-80
2023/01/31 07:25:41;;;;;;;15.67;5.30;;;;;;;3.55;100.00;100724.09;4994183;28;20205;-77
2023/01/31 07:28:07;;;;;;;6.90;4.43;;;;;;;3.57;100.00;100715.72;4993237;28;20660;-81
2023/01/31 07:30:32;;;;;;;8.97;4.27;;;;;;;3.58;100.00;100714.66;4994230;28;20176;-79
2023/01/31 07:32:59;;;;;;;21.17;7.57;;;;;;;3.61;100.00;100699.81;4994375;28;20535;-79
2023/01/31 07:35:24;;;;;;;42.40;5.57;;;;;;;3.63;100.00;100695.78;4994232;28;20637;-81
2023/01/31 07:37:52;;;;;;;10.27;4.57;;;;;;;3.66;100.00;100695.28;4994203;28;20211;-81
2023/01/31 07:40:18;;;;;;;7.90;5.00;;;;;;;3.67;100.00;100691.50;4993898;28;20308;-76
2023/01/31 07:42:43;;;;;;;21.53;6.93;;;;;;;3.70;100.00;100684.75;4994060;28;20268;-80
2023/01/31 07:45:14;;;;;;;19.03;6.73;;;;;;;3.72;100.00;100679.91;4993848;28;20207;-80
2023/01/31 07:47:41;;;;;;;18.57;5.37;;;;;;;3.75;100.00;100668.56;4994297;28;20173;-83
2023/01/31 07:50:07;;;;;;;7.83;6.57;;;;;;;3.79;100.00;100669.69;4994150;28;20185;-82
2023/01/31 07:52:32;;;;;;;6.43;4.30;;;;;;;3.83;100.00;100676.19;4993944;28;20800;-81
2023/01/31 07:54:58;;;;;;;8.57;4.47;;;;;;;3.82;100.00;100669.97;4993995;28;20260;-80
2023/01/31 07:57:23;;;;;;;21.13;7.07;;;;;;;3.88;100.00;100657.28;4993922;28;20308;-78
2023/01/31 07:59:48;;;;;;;11.53;4.20;;;;;;;3.95;100.00;100663.28;4993889;28;20188;-76
2023/01/31 08:05:00;;;;;;;15.77;5.53;;;;;;;4.06;100.00;100664.19;5013436;28;20191;-75
2023/01/31 08:07:26;;;;;;;7.60;4.20;;;;;;;4.08;100.00;100654.72;5013233;28;20193;-77
2023/01/31 08:09:52;;;;;;;8.23;5.73;;;;;;;4.10;100.00;100674.19;5012943;28;20179;-77
2023/01/31 08:12:17;;;;;;;7.53;5.57;;;;;;;4.15;100.00;100673.38;5011758;28;20185;-78
2023/01/31 08:14:43;;;;;;;7.23;4.77;;;;;;;4.18;100.00;100672.84;5013621;28;20585;-78
2023/01/31 08:17:08;;;;;;;10.50;5.43;;;;;;;4.14;100.00;100672.59;5013096;28;20186;-77
2023/01/31 08:19:34;;;;;;;12.87;5.00;;;;;;;4.14;100.00;100667.16;5013056;28;20181;-74
2023/01/31 08:22:01;;;;;;;14.53;4.63;;;;;;;4.16;100.00;100653.38;5012731;28;20188;-71
2023/01/31 08:24:26;;;;;;;8.40;4.83;;;;;;;4.21;100.00;100647.22;5012919;28;20546;-73
2023/01/31 08:26:52;;;;;;;14.50;7.20;;;;;;;4.25;100.00;100641.00;5012876;28;20210;-72
2023/01/31 08:29:17;;;;;;;10.83;5.23;;;;;;;4.33;100.00;100635.06;5013039;28;20711;-72
2023/01/31 08:31:43;;;;;;;15.07;5.53;;;;;;;4.41;100.00;100622.94;4999424;28;20192;-72
2023/01/31 08:34:08;;;;;;;12.03;6.13;;;;;;;4.46;100.00;100607.50;4984049;28;20599;-70
2023/01/31 08:36:34;;;;;;;11.63;5.37;;;;;;;4.52;100.00;100608.38;4985004;28;20264;-72
2023/01/31 08:39:00;;;;;;;11.63;5.67;;;;;;;4.53;100.00;100599.16;4993166;28;20629;-71
2023/01/31 08:41:27;;;;;;;11.87;5.13;;;;;;;4.55;100.00;100612.41;4992938;28;20181;-71
2023/01/31 08:43:54;;;;;;;10.00;4.57;;;;;;;4.55;100.00;100615.13;4993050;28;20177;-72
2023/01/31 08:46:20;;;;;;;13.33;5.53;;;;;;;4.60;100.00;100618.66;4992867;28;20239;-71
2023/01/31 08:48:45;;;;;;;8.03;5.23;;;;;;;4.63;99.96;100609.16;4992961;28;20220;-71
2023/01/31 08:51:12;;;;;;;22.73;5.97;;;;;;;4.63;99.85;100592.94;4992678;28;20232;-72
2023/01/31 08:53:39;;;;;;;18.00;5.70;;;;;;;4.62;99.75;100592.13;4993104;28;20671;-72
2023/01/31 08:56:06;;;;;;;14.93;6.73;;;;;;;4.63;99.57;100618.13;4992813;28;20173;-74
2023/01/31 08:58:32;;;;;;;6.83;4.23;;;;;;;4.65;100.00;100596.22;4991438;28;20692;-71
2023/01/31 09:01:02;;;;;;;13.77;5.20;;;;;;;4.68;100.00;100591.06;4992649;28;20169;-72
2023/01/31 09:03:27;;;;;;;13.90;4.67;;;;;;;4.67;100.00;100589.44;4992599;28;20184;-73
2023/01/31 09:05:52;;;;;;;15.33;5.40;;;;;;;4.69;99.79;100578.34;4992764;28;20678;-72
2023/01/31 09:08:18;;;;;;;23.87;6.20;;;;;;;4.70;99.61;100564.53;4991373;28;20184;-71
2023/01/31 09:10:50;;;;;;;10.00;5.37;;;;;;;4.71;99.55;100582.41;4992475;28;20576;-72
2023/01/31 09:13:16;;;;;;;25.20;6.17;;;;;;;4.73;99.35;100580.25;4992590;28;20272;-71
2023/01/31 09:15:41;;;;;;;12.93;3.57;;;;;;;4.72;99.33;100577.81;4992374;28;20256;-71
2023/01/31 09:18:06;;;;;;;9.30;4.73;;;;;;;4.73;99.43;100565.91;4992367;28;20173;-71
2023/01/31 09:20:31;;;;;;;10.73;7.00;;;;;;;4.74;99.00;100560.22;4992175;28;20511;-73
2023/01/31 09:22:57;;;;;;;11.77;5.97;;;;;;;4.78;98.84;100579.47;4991887;28;20212;-71
2023/01/31 09:25:22;;;;;;;15.13;6.23;;;;;;;4.75;98.07;100551.00;4992192;28;20650;-72
2023/01/31 09:27:47;;;;;;;15.33;7.13;;;;;;;4.76;98.23;100563.47;4992189;28;20184;-77
2023/01/31 09:30:13;;;;;;;12.57;6.27;;;;;;;4.77;98.51;100562.41;4992112;28;20177;-77
2023/01/31 09:32:40;;;;;;;22.23;6.07;;;;;;;4.79;97.95;100570.25;4992016;28;20535;-77
2023/01/31 09:35:06;;;;;;;9.80;3.33;;;;;;;4.79;98.31;100572.97;4991994;28;20264;-78
2023/01/31 09:37:31;;;;;;;11.97;5.20;;;;;;;4.78;98.12;100564.03;4992027;28;20292;-71
2023/01/31 09:39:56;;;;;;;8.77;5.07;;;;;;;4.78;98.18;100563.22;4991858;28;20228;-71
2023/01/31 09:42:34;;;;;;;15.03;6.13;;;;;;;4.76;98.66;100549.94;4992062;28;20264;-72
2023/01/31 09:45:11;;;;;;;7.83;4.83;;;;;;;4.71;99.55;100554.53;4991781;28;20181;-72
2023/01/31 09:47:40;;;;;;;4.43;4.03;;;;;;;4.64;100.00;100549.41;4991803;28;20180;-72
2023/01/31 09:50:22;;;;;;;12.03;6.40;;;;;;;4.58;100.00;100568.59;4991742;28;20247;-71
2023/01/31 09:52:48;;;;;;;3.50;2.47;;;;;;;4.52;100.00;100561.56;4991879;28;20170;-71
2023/01/31 09:55:21;;;;;;;15.37;7.03;;;;;;;4.35;100.00;100569.91;4991653;28;20177;-72
2023/01/31 09:58:24;;;;;;;15.53;7.93;;;;;;;4.12;100.00;100550.38;4991618;28;20583;-72
2023/01/31 10:00:55;;;;;;;7.13;5.80;;;;;;;4.00;100.00;100541.69;4991700;28;20180;-72
2023/01/31 10:03:37;;;;;;;15.70;8.87;;;;;;;3.94;100.00;100547.34;4991678;28;20573;-73
2023/01/31 10:06:12;;;;;;;4.23;3.93;;;;;;;3.87;100.00;100539.47;4991388;28;20205;-72
2023/01/31 10:08:58;;;;;;;9.50;7.70;;;;;;;3.81;100.00;100527.84;4991558;28;20175;-72
2023/01/31 10:11:33;;;;;;;3.33;2.97;;;;;;;3.79;100.00;100515.66;4991328;28;20205;-72
2023/01/31 10:14:28;;;;;;;8.10;7.23;;;;;;;3.76;100.00;100511.59;4990197;28;20185;-72
2023/01/31 10:16:59;;;;;;;11.37;6.27;;;;;;;3.75;100.00;100492.94;4991327;28;20192;-71
2023/01/31 10:19:33;;;;;;;9.33;6.40;;;;;;;3.72;100.00;100488.06;4990147;28;20173;-71
2023/01/31 10:22:06;;;;;;;3.60;3.27;;;;;;;3.69;100.00;100484.00;4990914;28;20185;-72
2023/01/31 10:24:34;;;;;;;8.13;6.40;;;;;;;3.67;100.00;100479.94;4991338;28;20200;-74
2023/01/31 10:27:05;;;;;;;14.20;4.67;;;;;;;3.68;100.00;100487.78;4989787;28;20236;-72
2023/01/31 10:29:37;;;;;;;8.37;6.20;;;;;;;3.69;100.00;100475.91;4991588;28;20177;-74
2023/01/31 10:32:11;;;;;;;13.70;7.00;;;;;;;3.69;100.00;100478.59;4990975;28;20264;-72
2023/01/31 10:34:46;;;;;;;13.17;7.27;;;;;;;3.71;100.00;100464.84;4991105;28;20172;-72
2023/01/31 10:37:36;;;;;;;7.40;6.03;;;;;;;3.73;100.00;100465.38;4989661;28;20189;-71
2023/01/31 10:40:11;;;;;;;11.23;5.93;;;;;;;3.77;100.00;100455.69;4990951;28;20247;-72
2023/01/31 10:42:39;;;;;;;9.03;4.87;;;;;;;3.80;100.00;100464.06;4991264;28;20185;-72
2023/01/31 10:45:07;;;;;;;16.33;5.27;;;;;;;3.86;100.00;100467.56;4990881;28;20184;-72
2023/01/31 10:47:55;;;;;;;3.57;3.37;;;;;;;3.89;100.00;100465.16;4990890;28;20578;-71
2023/01/31 10:50:39;;;;;;;7.17;4.93;;;;;;;3.97;100.00;100449.50;4990825;28;20268;-71
2023/01/31 10:53:13;;;;;;;3.70;3.27;;;;;;;4.01;100.00;100439.78;4990972;28;20185;-72
2023/01/31 10:55:41;;;;;;;8.63;5.57;;;;;;;4.04;100.00;100440.03;4991202;28;20601;-72
2023/01/31 10:58:14;;;;;;;9.60;4.77;;;;;;;4.08;100.00;100429.53;4990776;28;20212;-72
2023/01/31 11:00:39;;;;;;;7.23;4.50;;;;;;;4.11;100.00;100437.91;4990565;28;20197;-73
2023/01/31 11:03:05;;;;;;;10.93;4.07;;;;;;;4.16;100.00;100421.69;4990883;28;20181;-72
2023/01/31 11:05:30;;;;;;;4.60;3.43;;;;;;;4.20;100.00;100407.63;4990666;28;20212;-73
2023/01/31 11:08:02;;;;;;;3.70;3.47;;;;;;;4.22;100.00;100400.88;4990899;28;20201;-71
2023/01/31 11:10:29;;;;;;;6.87;3.87;;;;;;;4.23;100.00;100380.88;4989378;28;20716;-72
2023/01/31 11:12:56;;;;;;;8.60;4.03;;;;;;;4.28;100.00;100380.84;4990753;28;20181;-72
2023/01/31 11:15:25;;;;;;;3.93;3.63;;;;;;;4.28;100.00;100378.16;4990635;28;20200;-73
2023/01/31 11:17:51;;;;;;;4.77;2.57;;;;;;;4.34;100.00;100365.41;4990724;28;20179;-73
2023/01/31 11:20:27;;;;;;;8.00;3.93;;;;;;;4.40;100.00;100361.66;4990435;28;20694;-73
2023/01/31 11:22:55;;;;;;;3.83;3.47;;;;;;;4.41;100.00;100382.19;4990519;28;20200;-78
2023/01/31 11:25:22;;;;;;;3.40;3.13;;;;;;;4.39;100.00;100371.66;4991000;28;20200;-72
2023/01/31 11:27:51;;;;;;;13.00;3.63;;;;;;;4.40;100.00;100372.47;4990723;28;20177;-72
2023/01/31 11:30:24;;;;;;;8.50;3.80;;;;;;;4.37;100.00;100360.31;4990621;28;20233;-72
2023/01/31 11:32:49;;;;;;;7.33;3.93;;;;;;;4.38;100.00;100359.22;4989457;28;20236;-73
2023/01/31 11:35:14;;;;;;;5.87;5.27;;;;;;;4.43;100.00;100364.63;4990585;28;20185;-71